createdAt,value
2019-03-09T00:02:10.416Z,5.11
2019-03-09T00:04:42.421Z,5.11
2019-03-09T00:07:14.411Z,5.05
2019-03-09T00:09:46.656Z,5.13
2019-03-09T00:12:18.630Z,5.01
2019-03-09T00:14:50.671Z,4.84
2019-03-09T00:17:22.750Z,4.89
2019-03-09T00:19:56.994Z,4.93
2019-03-09T00:22:28.993Z,4.95
2019-03-09T00:25:14.177Z,5.02
2019-03-09T00:27:50.968Z,5.03
2019-03-09T00:30:42.567Z,5.03
2019-03-09T00:33:14.638Z,5.03
2019-03-09T00:35:47.924Z,5.02
2019-03-09T00:38:19.912Z,5.04
2019-03-09T00:40:51.929Z,5.04
2019-03-09T00:43:23.926Z,5.06
2019-03-09T00:45:55.909Z,5.09
2019-03-09T00:48:27.938Z,5.10
2019-03-09T00:50:59.939Z,5.09
2019-03-09T00:53:31.943Z,5.00
2019-03-09T00:56:04.041Z,5.02
2019-03-09T00:58:36.032Z,5.08
2019-03-09T01:01:08.068Z,5.04
2019-03-09T01:03:40.136Z,5.06
2019-03-09T01:06:12.124Z,5.03
2019-03-09T01:08:44.119Z,4.96
2019-03-09T01:11:16.121Z,5.00
2019-03-09T01:13:48.200Z,4.99
2019-03-09T01:16:20.185Z,5.02
2019-03-09T01:18:52.179Z,5.08
2019-03-09T01:21:24.187Z,5.11
2019-03-09T01:23:56.154Z,5.12
2019-03-09T01:26:28.420Z,5.13
2019-03-09T01:29:00.408Z,5.08
2019-03-09T01:31:33.605Z,5.16
2019-03-09T01:34:05.587Z,5.29
2019-03-09T01:36:37.646Z,5.21
2019-03-09T01:39:09.586Z,5.21
2019-03-09T01:41:41.576Z,5.29
2019-03-09T01:44:13.528Z,5.31
2019-03-09T01:46:45.557Z,5.32
2019-03-09T01:49:17.574Z,5.29
2019-03-09T01:51:49.608Z,5.28
2019-03-09T01:54:21.620Z,5.37
2019-03-09T01:56:53.619Z,5.45
2019-03-09T01:59:25.609Z,5.52
2019-03-09T02:01:57.620Z,5.61
2019-03-09T02:04:29.581Z,5.66
2019-03-09T02:07:01.570Z,5.70
2019-03-09T02:09:33.560Z,5.92
2019-03-09T02:12:05.529Z,6.01
2019-03-09T02:14:37.512Z,6.09
2019-03-09T02:17:09.507Z,6.33
2019-03-09T02:19:41.480Z,6.41
2019-03-09T02:22:13.455Z,6.57
2019-03-09T02:24:45.452Z,6.57
2019-03-09T02:27:17.428Z,6.80
2019-03-09T02:29:49.420Z,7.03
2019-03-09T02:32:21.450Z,7.38
2019-03-09T02:34:53.501Z,7.49
2019-03-09T02:37:25.458Z,7.59
2019-03-09T02:40:17.038Z,7.85
2019-03-09T02:42:49.016Z,7.89
2019-03-09T02:48:04.262Z,8.06
2019-03-09T02:53:16.430Z,8.05
2019-03-09T02:55:48.431Z,8.20
2019-03-09T02:58:20.388Z,8.25
2019-03-09T03:03:44.088Z,8.32
2019-03-09T03:06:16.080Z,8.29
2019-03-09T03:08:48.068Z,8.35
2019-03-09T03:11:20.060Z,8.35
2019-03-09T03:13:52.032Z,8.32
2019-03-09T03:16:24.022Z,8.31
2019-03-09T03:18:56.012Z,8.26
2019-03-09T03:21:28.019Z,8.37
2019-03-09T03:24:00.031Z,8.52
2019-03-09T03:26:31.992Z,8.43
2019-03-09T03:29:03.965Z,8.43
2019-03-09T03:31:35.977Z,8.55
2019-03-09T03:34:07.982Z,8.51
2019-03-09T03:36:39.953Z,8.41
2019-03-09T03:39:11.912Z,8.38
2019-03-09T03:41:43.894Z,8.37
2019-03-09T03:44:35.556Z,8.45
2019-03-09T03:47:07.642Z,8.52
2019-03-09T03:49:39.598Z,8.47
2019-03-09T03:52:11.610Z,8.43
2019-03-09T03:54:43.586Z,8.41
2019-03-09T03:57:15.572Z,8.48
2019-03-09T03:59:47.552Z,8.57
2019-03-09T04:02:19.546Z,8.70
2019-03-09T04:04:51.495Z,8.68
2019-03-09T04:07:23.490Z,8.59
2019-03-09T04:09:55.455Z,8.59
2019-03-09T04:12:27.440Z,8.68
2019-03-09T04:14:59.412Z,8.78
2019-03-09T04:17:31.424Z,8.74
2019-03-09T04:20:03.582Z,8.68
2019-03-09T04:22:35.565Z,8.81
2019-03-09T04:28:20.524Z,8.80
2019-03-09T04:30:52.475Z,8.71
2019-03-09T04:33:24.472Z,8.73
2019-03-09T04:35:56.419Z,8.88
2019-03-09T04:38:28.403Z,8.89
2019-03-09T04:41:00.366Z,8.87
2019-03-09T04:43:32.354Z,8.84
2019-03-09T04:46:04.352Z,8.95
2019-03-09T04:48:36.332Z,8.98
2019-03-09T04:51:08.303Z,8.90
2019-03-09T04:53:40.278Z,9.01
2019-03-09T04:56:12.278Z,9.00
2019-03-09T04:58:44.269Z,9.02
2019-03-09T05:01:16.243Z,9.14
2019-03-09T05:04:16.339Z,9.13
2019-03-09T05:06:48.325Z,9.14
2019-03-09T05:09:42.750Z,9.15
2019-03-09T05:12:14.677Z,9.10
2019-03-09T05:14:46.665Z,9.05
2019-03-09T05:17:18.651Z,9.00
2019-03-09T05:19:50.822Z,9.00
2019-03-09T05:22:22.799Z,8.95
2019-03-09T05:24:54.791Z,8.91
2019-03-09T05:27:26.764Z,8.95
2019-03-09T05:29:58.756Z,8.97
2019-03-09T05:32:30.746Z,8.88
2019-03-09T05:35:02.872Z,8.85
2019-03-09T05:37:42.878Z,8.84
2019-03-09T05:40:08.766Z,8.74
2019-03-09T05:42:40.729Z,8.65
2019-03-09T05:45:12.747Z,8.60
2019-03-09T05:47:44.734Z,8.58
2019-03-09T05:50:16.803Z,8.52
2019-03-09T05:52:55.645Z,8.37
2019-03-09T05:55:27.640Z,8.34
2019-03-09T05:57:59.647Z,8.17
2019-03-09T06:03:11.865Z,8.10
2019-03-09T06:06:22.763Z,8.02
2019-03-09T06:08:54.743Z,7.96
2019-03-09T06:11:26.734Z,7.92
2019-03-09T06:13:58.715Z,7.92
2019-03-09T06:16:30.691Z,7.91
2019-03-09T06:19:02.691Z,7.92
2019-03-09T06:21:34.667Z,8.03
2019-03-09T06:24:06.659Z,8.05
2019-03-09T06:26:38.646Z,7.98
2019-03-09T06:29:10.707Z,8.01
2019-03-09T06:32:21.658Z,8.12
2019-03-09T06:34:53.644Z,8.07
2019-03-09T06:37:25.673Z,8.19
2019-03-09T06:39:57.648Z,8.24
2019-03-09T06:42:41.471Z,8.34
2019-03-09T06:45:14.900Z,8.41
2019-03-09T06:47:46.910Z,8.42
2019-03-09T06:50:19.692Z,8.48
2019-03-09T06:52:51.704Z,8.47
2019-03-09T06:55:23.706Z,8.35
2019-03-09T06:57:55.674Z,8.48
2019-03-09T07:00:30.205Z,8.57
2019-03-09T07:03:02.220Z,8.54
2019-03-09T07:05:34.224Z,8.48
2019-03-09T07:08:06.220Z,8.53
2019-03-09T07:10:38.227Z,8.56
2019-03-09T07:13:10.223Z,8.62
2019-03-09T07:15:43.600Z,8.61
2019-03-09T07:18:36.102Z,8.51
2019-03-09T07:21:08.125Z,8.75
2019-03-09T07:23:40.087Z,8.67
2019-03-09T07:26:12.078Z,8.63
2019-03-09T07:28:44.090Z,8.77
2019-03-09T07:31:16.125Z,8.71
2019-03-09T07:34:12.375Z,8.71
2019-03-09T07:36:44.988Z,8.72
2019-03-09T07:39:17.060Z,8.69
2019-03-09T07:41:49.090Z,8.67
2019-03-09T07:44:21.159Z,8.74
2019-03-09T07:46:53.178Z,8.87
2019-03-09T07:49:25.178Z,8.82
2019-03-09T07:51:57.189Z,8.87
2019-03-09T07:54:29.188Z,8.90
2019-03-09T07:57:01.199Z,9.04
2019-03-09T07:59:33.322Z,9.07
2019-03-09T08:02:05.432Z,9.06
2019-03-09T08:04:37.463Z,9.07
2019-03-09T08:07:09.496Z,9.09
2019-03-09T08:09:41.504Z,9.20
2019-03-09T08:12:13.536Z,9.22
2019-03-09T08:14:45.568Z,9.28
2019-03-09T08:17:17.651Z,9.35
2019-03-09T08:19:49.649Z,9.39
2019-03-09T08:22:21.656Z,9.53
2019-03-09T08:24:53.656Z,9.61
2019-03-09T08:27:25.703Z,9.70
2019-03-09T08:29:57.687Z,9.70
2019-03-09T08:32:29.710Z,9.69
2019-03-09T08:35:01.680Z,9.74
2019-03-09T08:37:33.659Z,9.68
2019-03-09T08:40:06.489Z,9.73
2019-03-09T08:42:38.513Z,9.78
2019-03-09T08:45:11.167Z,9.84
2019-03-09T08:47:51.581Z,9.86
2019-03-09T08:50:18.544Z,9.81
2019-03-09T08:52:50.613Z,10.02
2019-03-09T08:55:22.650Z,10.04
2019-03-09T08:57:54.715Z,9.93
2019-03-09T09:00:30.239Z,10.05
2019-03-09T09:03:02.707Z,10.06
2019-03-09T09:05:34.798Z,10.06
2019-03-09T09:08:06.841Z,10.17
2019-03-09T09:10:38.885Z,10.20
2019-03-09T09:13:10.935Z,10.24
2019-03-09T09:15:42.960Z,10.21
2019-03-09T09:18:14.975Z,10.20
2019-03-09T09:20:47.001Z,10.24
2019-03-09T09:23:19.005Z,10.30
2019-03-09T09:25:51.019Z,10.30
2019-03-09T09:28:23.029Z,10.40
2019-03-09T09:30:55.021Z,10.41
2019-03-09T09:33:27.046Z,10.39
2019-03-09T09:35:59.049Z,10.48
2019-03-09T09:38:31.047Z,10.55
2019-03-09T09:41:03.037Z,10.60
2019-03-09T09:43:35.078Z,10.68
2019-03-09T09:46:07.052Z,10.72
2019-03-09T09:48:39.051Z,10.77
2019-03-09T09:51:11.029Z,10.78
2019-03-09T09:53:43.043Z,10.83
2019-03-09T09:56:15.164Z,10.89
2019-03-09T09:58:47.216Z,10.99
2019-03-09T10:01:19.233Z,11.00
2019-03-09T10:03:51.291Z,11.19
2019-03-09T10:06:23.371Z,11.13
2019-03-09T10:08:55.415Z,11.20
2019-03-09T10:11:27.448Z,11.20
2019-03-09T10:13:59.475Z,11.09
2019-03-09T10:16:51.025Z,11.12
2019-03-09T10:19:23.047Z,11.23
2019-03-09T10:21:55.042Z,11.25
2019-03-09T10:24:27.048Z,11.19
2019-03-09T10:27:18.557Z,11.25
2019-03-09T10:29:50.570Z,11.25
2019-03-09T10:32:22.607Z,11.22
2019-03-09T10:34:54.610Z,11.22
2019-03-09T10:37:26.659Z,11.22
2019-03-09T10:39:58.639Z,11.00
2019-03-09T10:42:30.670Z,11.25
2019-03-09T10:48:15.907Z,11.28
2019-03-09T10:50:48.172Z,11.18
2019-03-09T10:53:20.444Z,11.13
2019-03-09T10:55:52.449Z,11.13
2019-03-09T10:58:24.501Z,11.43
2019-03-09T11:00:56.514Z,11.39
2019-03-09T11:03:28.563Z,11.41
2019-03-09T11:06:00.680Z,11.41
2019-03-09T11:08:33.919Z,11.50
2019-03-09T11:11:05.953Z,11.54
2019-03-09T11:13:37.983Z,11.64
2019-03-09T11:16:09.990Z,11.55
2019-03-09T11:18:42.004Z,11.62
2019-03-09T11:21:14.045Z,11.59
2019-03-09T11:23:47.924Z,11.59
2019-03-09T11:26:20.129Z,11.62
2019-03-09T11:28:52.173Z,11.65
2019-03-09T11:31:24.375Z,11.53
2019-03-09T11:33:56.392Z,11.45
2019-03-09T11:36:28.453Z,11.54
2019-03-09T11:39:00.484Z,11.62
2019-03-09T11:41:36.782Z,11.66
2019-03-09T11:44:08.870Z,11.64
2019-03-09T11:46:42.071Z,11.64
2019-03-09T11:49:15.223Z,11.69
2019-03-09T11:51:47.207Z,11.64
2019-03-09T11:54:19.310Z,11.63
2019-03-09T11:56:53.367Z,11.53
2019-03-09T11:59:25.512Z,11.66
2019-03-09T12:01:57.528Z,11.66
2019-03-09T12:04:29.593Z,11.57
2019-03-09T12:07:01.591Z,11.64
2019-03-09T12:09:33.634Z,11.73
2019-03-09T12:12:05.732Z,11.65
2019-03-09T12:14:37.793Z,11.71
2019-03-09T12:17:12.552Z,11.76
2019-03-09T12:19:43.681Z,11.86
2019-03-09T12:22:15.705Z,11.69
2019-03-09T12:24:51.544Z,11.60
2019-03-09T12:27:23.563Z,11.56
2019-03-09T12:29:55.625Z,11.62
2019-03-09T12:32:27.656Z,11.62
2019-03-09T12:35:01.463Z,11.68
2019-03-09T12:37:33.516Z,11.58
2019-03-09T12:40:06.928Z,11.66
2019-03-09T12:42:38.970Z,11.58
2019-03-09T12:45:11.190Z,11.64
2019-03-09T12:47:43.264Z,11.54
2019-03-09T12:50:16.152Z,11.55
2019-03-09T12:52:48.525Z,11.63
2019-03-09T12:55:20.550Z,11.60
2019-03-09T12:57:52.743Z,11.62
2019-03-09T13:00:24.759Z,11.55
2019-03-09T13:02:56.849Z,11.45
2019-03-09T13:05:28.915Z,11.53
2019-03-09T13:08:00.931Z,11.55
2019-03-09T13:10:33.029Z,11.50
2019-03-09T13:13:05.150Z,11.49
2019-03-09T13:15:37.180Z,11.38
2019-03-09T13:18:11.066Z,11.48
2019-03-09T13:20:43.169Z,11.54
2019-03-09T13:23:15.213Z,11.55
2019-03-09T13:25:47.409Z,11.50
2019-03-09T13:28:19.570Z,11.50
2019-03-09T13:30:51.555Z,11.50
2019-03-09T13:33:23.573Z,11.52
2019-03-09T13:35:55.719Z,11.68
2019-03-09T13:38:29.489Z,11.65
2019-03-09T13:41:01.635Z,11.75
2019-03-09T13:43:33.687Z,11.75
2019-03-09T13:46:05.664Z,11.79
2019-03-09T13:48:37.723Z,11.82
2019-03-09T13:51:09.906Z,11.83
2019-03-09T13:53:42.033Z,11.85
2019-03-09T13:56:14.071Z,11.79
2019-03-09T13:58:46.092Z,11.73
2019-03-09T14:01:18.244Z,11.72
2019-03-09T14:03:50.309Z,11.70
2019-03-09T14:06:22.286Z,11.68
2019-03-09T14:08:54.384Z,11.64
2019-03-09T14:11:28.231Z,11.68
2019-03-09T14:14:00.268Z,11.63
2019-03-09T14:16:32.316Z,11.57
2019-03-09T14:19:04.368Z,11.47
2019-03-09T14:21:36.389Z,11.42
2019-03-09T14:24:08.463Z,11.46
2019-03-09T14:26:40.599Z,11.45
2019-03-09T14:29:12.705Z,11.42
2019-03-09T14:31:44.728Z,11.39
2019-03-09T14:34:17.849Z,11.36
2019-03-09T14:36:50.221Z,11.35
2019-03-09T14:39:22.396Z,11.21
2019-03-09T14:41:54.574Z,11.21
2019-03-09T14:44:26.664Z,11.00
2019-03-09T14:46:58.716Z,11.00
2019-03-09T14:49:31.935Z,10.89
2019-03-09T14:52:04.079Z,10.80
2019-03-09T14:54:36.122Z,10.79
2019-03-09T14:57:08.307Z,10.86
2019-03-09T14:59:41.658Z,10.78
2019-03-09T15:02:13.962Z,10.71
2019-03-09T15:04:46.284Z,10.70
2019-03-09T15:07:18.379Z,10.70
2019-03-09T15:09:50.439Z,10.67
2019-03-09T15:12:22.515Z,10.70
2019-03-09T15:14:54.559Z,10.87
2019-03-09T15:17:26.722Z,10.87
2019-03-09T15:19:58.842Z,10.97
2019-03-09T15:22:30.918Z,10.97
2019-03-09T15:25:03.131Z,10.95
2019-03-09T15:27:35.262Z,10.95
2019-03-09T15:30:09.205Z,11.10
2019-03-09T15:32:41.273Z,11.05
2019-03-09T15:35:14.323Z,11.01
2019-03-09T15:37:46.394Z,11.01
2019-03-09T15:40:18.512Z,11.06
2019-03-09T15:42:50.906Z,11.13
2019-03-09T15:45:22.911Z,11.22
2019-03-09T15:47:54.996Z,11.22
2019-03-09T15:50:27.149Z,11.20
2019-03-09T15:52:59.168Z,11.15
2019-03-09T15:55:31.266Z,11.14
2019-03-09T15:58:03.439Z,11.26
2019-03-09T16:00:35.552Z,11.15
2019-03-09T16:03:09.553Z,11.10
2019-03-09T16:05:41.740Z,11.10
2019-03-09T16:08:13.817Z,11.11
2019-03-09T16:10:45.947Z,11.10
2019-03-09T16:13:17.973Z,11.10
2019-03-09T16:15:50.026Z,11.11
2019-03-09T16:18:23.270Z,11.10
2019-03-09T16:20:55.339Z,11.07
2019-03-09T16:23:27.429Z,11.07
2019-03-09T16:26:00.605Z,11.07
2019-03-09T16:28:32.688Z,11.07
2019-03-09T16:31:05.399Z,10.95
2019-03-09T16:33:37.537Z,11.01
2019-03-09T16:36:09.660Z,11.14
2019-03-09T16:38:41.673Z,11.17
2019-03-09T16:41:14.843Z,11.21
2019-03-09T16:43:46.861Z,11.17
2019-03-09T16:46:18.881Z,11.11
2019-03-09T16:48:50.951Z,11.11
2019-03-09T16:51:23.044Z,11.21
2019-03-09T16:54:14.572Z,11.15
2019-03-09T16:56:46.679Z,11.15
2019-03-09T16:59:18.763Z,11.19
2019-03-09T17:01:50.778Z,11.28
2019-03-09T17:04:22.833Z,11.17
2019-03-09T17:06:54.839Z,11.17
2019-03-09T17:09:26.873Z,11.18
2019-03-09T17:11:58.853Z,11.13
2019-03-09T17:14:30.903Z,11.11
2019-03-09T17:17:02.932Z,11.19
2019-03-09T17:19:34.989Z,11.19
2019-03-09T17:22:07.013Z,11.22
2019-03-09T17:24:39.112Z,11.22
2019-03-09T17:27:30.575Z,11.18
2019-03-09T17:30:02.759Z,11.18
2019-03-09T17:32:34.822Z,11.19
2019-03-09T17:35:07.050Z,11.06
2019-03-09T17:37:39.110Z,11.08
2019-03-09T17:40:11.259Z,11.14
2019-03-09T17:42:43.286Z,10.96
2019-03-09T17:45:16.734Z,11.07
2019-03-09T17:47:48.782Z,11.02
2019-03-09T17:50:20.839Z,10.85
2019-03-09T17:52:52.871Z,10.99
2019-03-09T17:55:24.936Z,10.93
2019-03-09T17:57:56.940Z,10.95
2019-03-09T18:03:08.904Z,10.84
2019-03-09T18:06:00.441Z,10.80
2019-03-09T18:08:32.485Z,10.81
2019-03-09T18:11:05.798Z,10.81
2019-03-09T18:13:37.832Z,10.80
2019-03-09T18:16:09.901Z,10.77
2019-03-09T18:18:42.068Z,10.77
2019-03-09T18:21:14.101Z,10.81
2019-03-09T18:23:46.156Z,10.85
2019-03-09T18:26:18.227Z,10.90
2019-03-09T18:28:50.218Z,10.86
2019-03-09T18:31:22.285Z,10.74
2019-03-09T18:33:54.287Z,10.67
2019-03-09T18:36:26.538Z,10.73
2019-03-09T18:38:58.541Z,10.67
2019-03-09T18:41:30.582Z,10.69
2019-03-09T18:44:02.820Z,10.87
2019-03-09T18:46:34.963Z,10.73
2019-03-09T18:49:08.227Z,10.73
2019-03-09T18:51:40.313Z,10.71
2019-03-09T18:54:12.351Z,10.88
2019-03-09T18:56:44.363Z,10.76
2019-03-09T18:59:16.420Z,10.85
2019-03-09T19:01:48.433Z,10.80
2019-03-09T19:04:20.569Z,10.79
2019-03-09T19:06:52.595Z,10.82
2019-03-09T19:09:24.907Z,10.83
2019-03-09T19:11:58.877Z,10.72
2019-03-09T19:14:31.075Z,10.79
2019-03-09T19:17:03.137Z,10.79
2019-03-09T19:19:35.534Z,10.70
2019-03-09T19:22:07.752Z,10.77
2019-03-09T19:24:40.440Z,10.79
2019-03-09T19:27:13.569Z,10.73
2019-03-09T19:29:45.619Z,10.79
2019-03-09T19:32:17.683Z,10.75
2019-03-09T19:34:51.676Z,10.75
2019-03-09T19:37:23.750Z,10.75
2019-03-09T19:39:55.846Z,10.75
2019-03-09T19:42:27.972Z,10.68
2019-03-09T19:45:00.003Z,10.68
2019-03-09T19:47:32.137Z,10.54
2019-03-09T19:50:05.423Z,10.54
2019-03-09T19:52:37.559Z,10.52
2019-03-09T19:55:09.833Z,10.53
2019-03-09T19:57:41.849Z,10.52
2019-03-09T20:00:14.133Z,10.45
2019-03-09T20:02:46.192Z,10.50
2019-03-09T20:05:18.452Z,10.49
2019-03-09T20:07:50.473Z,10.46
2019-03-09T20:10:23.040Z,10.48
2019-03-09T20:12:55.197Z,10.50
2019-03-09T20:15:28.507Z,10.66
2019-03-09T20:18:00.727Z,10.66
2019-03-09T20:20:32.777Z,10.62
2019-03-09T20:23:04.860Z,10.70
2019-03-09T20:25:37.079Z,10.70
2019-03-09T20:28:09.211Z,10.79
2019-03-09T20:30:41.301Z,10.94
2019-03-09T20:33:13.443Z,10.97
2019-03-09T20:35:45.622Z,10.94
2019-03-09T20:38:17.772Z,10.96
2019-03-09T20:40:49.976Z,10.90
2019-03-09T20:43:22.063Z,10.85
2019-03-09T20:45:54.196Z,10.85
2019-03-09T20:48:26.235Z,10.90
2019-03-09T20:50:58.429Z,10.78
2019-03-09T20:53:32.291Z,10.85
2019-03-09T20:56:04.415Z,10.91
2019-03-09T20:58:37.581Z,10.90
2019-03-09T21:01:09.615Z,10.92
2019-03-09T21:03:41.730Z,10.99
2019-03-09T21:06:13.870Z,10.90
2019-03-09T21:08:45.991Z,11.09
2019-03-09T21:11:19.815Z,10.89
2019-03-09T21:13:53.754Z,10.96
2019-03-09T21:16:28.977Z,11.04
2019-03-09T21:19:00.993Z,10.99
2019-03-09T21:21:33.224Z,11.07
2019-03-09T21:24:05.336Z,11.07
2019-03-09T21:26:37.531Z,11.03
2019-03-09T21:29:09.609Z,11.12
2019-03-09T21:31:41.644Z,11.12
2019-03-09T21:34:13.752Z,11.12
2019-03-09T21:36:45.799Z,11.12
2019-03-09T21:39:17.894Z,11.16
2019-03-09T21:41:49.974Z,11.12
2019-03-09T21:44:22.018Z,11.08
2019-03-09T21:46:54.112Z,11.08
2019-03-09T21:49:26.267Z,11.10
2019-03-09T21:51:58.300Z,11.10
2019-03-09T21:54:30.462Z,11.18
2019-03-09T21:57:02.511Z,11.12
2019-03-09T21:59:34.569Z,11.12
2019-03-09T22:02:06.662Z,11.13
2019-03-09T22:04:38.771Z,11.12
2019-03-09T22:07:10.776Z,11.18
2019-03-09T22:09:42.855Z,11.10
2019-03-09T22:12:15.168Z,11.10
2019-03-09T22:14:47.272Z,11.08
2019-03-09T22:17:19.449Z,11.12
2019-03-09T22:19:51.527Z,11.02
2019-03-09T22:22:23.597Z,11.03
2019-03-09T22:24:55.881Z,11.05
2019-03-09T22:27:29.692Z,11.07
2019-03-09T22:30:01.797Z,11.06
2019-03-09T22:32:33.833Z,11.12
2019-03-09T22:35:07.524Z,11.12
2019-03-09T22:37:39.582Z,11.11
2019-03-09T22:40:12.050Z,11.03
2019-03-09T22:42:45.335Z,11.03
2019-03-09T22:45:17.422Z,11.05
2019-03-09T22:47:49.475Z,11.05
2019-03-09T22:50:23.016Z,10.94
2019-03-09T22:52:55.028Z,11.04
2019-03-09T22:55:27.209Z,11.10
2019-03-09T22:57:59.414Z,11.10
2019-03-09T23:00:32.056Z,11.01
2019-03-09T23:03:04.602Z,11.04
2019-03-09T23:05:36.633Z,11.13
2019-03-09T23:08:08.678Z,10.96
2019-03-09T23:10:40.807Z,11.07
2019-03-09T23:13:12.845Z,11.07
2019-03-09T23:15:44.883Z,10.98
2019-03-09T23:18:16.996Z,11.12
2019-03-09T23:20:49.605Z,11.08
2019-03-09T23:23:21.664Z,11.11
2019-03-09T23:25:54.790Z,11.21
2019-03-09T23:28:37.630Z,11.17
2019-03-09T23:31:09.847Z,11.17
2019-03-09T23:33:41.984Z,11.16
2019-03-09T23:36:14.040Z,11.07
2019-03-09T23:38:46.140Z,11.01
2019-03-09T23:41:18.131Z,11.07
2019-03-09T23:43:50.394Z,11.10
2019-03-09T23:46:22.483Z,11.11
2019-03-09T23:48:54.723Z,11.15
2019-03-09T23:51:26.716Z,11.16
2019-03-09T23:53:58.753Z,11.15
2019-03-09T23:56:30.962Z,11.12
2019-03-09T23:59:03.020Z,10.98
